Wyoming, Iowa
Current Conditions -  °F | °C
As of 10:15 PM on Sunday 23 Nov 2014 (Local Time) from KMXO Reporting Station
Light Rain Light Rain  
Wind Chill: 40°   Ceiling: 200
Heat Index: 46°   Visibility: 0.75mi
Dew Point: 46°   Wind: 14mph
Humidity: 100%   Direction: 300°WNW
Pressure: 29.19"   Gusts: NA
Location:  42.06°N, 91.01°W
Report Text: KMXO 240415Z AUTO 30012KT 3/4SM -RA OVC002 08/08 A2919 RMK AO2
Loading
Personal Weather Stations






























Interactive Weather Map New forecast layout! Learn more

10-Day Weather Forecast

Advertisements
Track Severe Weather on mobile